createdAt,value
2019-01-20T13:29:32.218Z,26.52
2019-01-20T13:32:00.424Z,26.45
2019-01-20T13:34:28.631Z,28.20
2019-01-20T13:36:56.848Z,25.88
2019-01-20T13:39:25.042Z,29.80
2019-01-20T13:41:53.705Z,28.75
2019-01-20T13:44:22.005Z,29.37
2019-01-20T13:46:50.795Z,27.87
2019-01-20T13:49:19.109Z,26.10
2019-01-20T13:51:47.800Z,26.82
2019-01-20T13:54:16.281Z,27.55
2019-01-20T13:56:45.143Z,28.60
2019-01-20T13:59:13.590Z,28.45
2019-01-20T14:01:42.658Z,28.38
2019-01-20T14:04:11.006Z,28.00
2019-01-20T14:06:39.303Z,28.52
2019-01-20T14:09:07.514Z,29.25
2019-01-20T14:11:35.715Z,28.65
2019-01-20T14:14:03.932Z,29.72
2019-01-20T14:16:32.132Z,29.20
2019-01-20T14:19:00.632Z,28.45
2019-01-20T14:21:28.812Z,29.75
2019-01-20T14:23:57.038Z,29.32
2019-01-20T14:26:26.792Z,31.97
2019-01-20T14:28:55.008Z,31.15
2019-01-20T14:31:23.540Z,30.43
2019-01-20T14:33:51.739Z,27.70
2019-01-20T14:36:19.962Z,29.57
2019-01-20T14:38:48.167Z,29.90
2019-01-20T14:41:16.364Z,30.17
2019-01-20T14:43:44.575Z,30.62
2019-01-20T14:46:12.776Z,29.72
2019-01-20T14:48:40.985Z,29.27
2019-01-20T14:51:09.188Z,29.55
2019-01-20T14:53:37.409Z,29.45
2019-01-20T14:56:05.608Z,28.85
2019-01-20T14:58:34.182Z,28.25
2019-01-20T15:01:02.377Z,29.82
2019-01-20T15:03:30.588Z,29.65
2019-01-20T15:05:58.783Z,28.62
2019-01-20T15:08:26.991Z,29.55
2019-01-20T15:10:55.199Z,28.15
2019-01-20T15:13:23.449Z,28.90
2019-01-20T15:15:51.663Z,30.40
2019-01-20T15:18:19.889Z,29.92
2019-01-20T15:20:48.075Z,29.37
2019-01-20T15:23:16.286Z,28.70
2019-01-20T15:25:45.175Z,28.73
2019-01-20T15:28:13.375Z,28.80
2019-01-20T15:30:41.577Z,27.77
2019-01-20T15:33:09.779Z,28.73
2019-01-20T15:35:37.979Z,28.50
2019-01-20T15:38:06.181Z,30.45
2019-01-20T15:40:34.387Z,28.30
2019-01-20T15:43:02.589Z,30.68
2019-01-20T15:45:30.798Z,29.00
2019-01-20T15:47:59.003Z,28.45
2019-01-20T15:50:31.788Z,28.70
2019-01-20T15:52:59.994Z,28.17
2019-01-20T15:55:28.207Z,28.65
2019-01-20T15:57:56.404Z,29.55
2019-01-20T16:00:27.206Z,27.70
2019-01-20T16:02:55.409Z,26.65
2019-01-20T16:05:24.364Z,27.50
2019-01-20T16:07:52.558Z,28.52
2019-01-20T16:10:20.763Z,27.87
2019-01-20T16:12:48.952Z,28.30
2019-01-20T16:15:25.899Z,28.55
2019-01-20T16:17:55.046Z,28.95
2019-01-20T16:20:23.689Z,29.85
2019-01-20T16:22:51.885Z,27.90
2019-01-20T16:25:24.771Z,29.25
2019-01-20T16:27:52.975Z,28.95
2019-01-20T16:30:26.609Z,28.38
2019-01-20T16:32:54.811Z,29.10
2019-01-20T16:35:23.954Z,29.75
2019-01-20T16:37:52.151Z,29.77
2019-01-20T16:40:22.611Z,29.50
2019-01-20T16:42:50.818Z,28.38
2019-01-20T16:45:32.821Z,28.45
2019-01-20T16:47:58.479Z,30.95
2019-01-20T16:50:26.679Z,28.30
2019-01-20T16:52:55.048Z,31.62
2019-01-20T16:55:23.246Z,32.20
2019-01-20T16:57:51.523Z,34.08
2019-01-20T17:00:25.722Z,31.87
2019-01-20T17:02:54.006Z,33.48
2019-01-20T17:05:26.467Z,30.45
2019-01-20T17:07:52.149Z,32.38
2019-01-20T17:10:25.880Z,30.95
2019-01-20T17:12:54.088Z,30.68
2019-01-20T17:15:24.831Z,30.88
2019-01-20T17:17:53.047Z,30.48
2019-01-20T17:20:21.264Z,27.75
2019-01-20T17:22:49.525Z,30.95
2019-01-20T17:25:17.994Z,31.48
2019-01-20T17:27:46.204Z,30.27
2019-01-20T17:30:17.232Z,30.27
2019-01-20T17:32:45.645Z,31.75
2019-01-20T17:35:13.844Z,28.75
2019-01-20T17:37:42.058Z,30.48
2019-01-20T17:40:16.055Z,30.72
2019-01-20T17:42:44.259Z,29.82
2019-01-20T17:45:15.297Z,30.48
2019-01-20T17:47:43.504Z,30.17
2019-01-20T17:50:17.495Z,31.55
2019-01-20T17:52:45.701Z,31.20
2019-01-20T17:55:13.895Z,31.17
2019-01-20T17:57:42.105Z,29.98
2019-01-20T18:00:18.896Z,30.72
2019-01-20T18:02:47.108Z,29.35
2019-01-20T18:05:18.264Z,31.12
2019-01-20T18:07:47.049Z,27.82
2019-01-20T18:10:15.413Z,28.30
2019-01-20T18:12:43.613Z,26.12
2019-01-20T18:15:26.187Z,27.10
2019-01-20T18:17:54.391Z,28.42
2019-01-20T18:20:30.749Z,27.48
2019-01-20T18:22:58.952Z,27.70
2019-01-20T18:25:27.168Z,27.30
2019-01-20T18:27:55.354Z,26.55
2019-01-20T18:30:28.375Z,26.60
2019-01-20T18:32:56.571Z,28.40
2019-01-20T18:35:26.211Z,29.37
2019-01-20T18:37:54.423Z,26.40
2019-01-20T18:40:23.974Z,26.50
2019-01-20T18:42:52.167Z,29.67
2019-01-20T18:45:28.960Z,28.92
2019-01-20T18:47:57.153Z,27.87
2019-01-20T18:50:33.377Z,27.05
2019-01-20T18:53:01.847Z,27.40
2019-01-20T18:55:30.050Z,27.45
2019-01-20T18:57:58.241Z,27.90
2019-01-20T19:00:28.788Z,30.43
2019-01-20T19:05:24.525Z,28.25
2019-01-20T19:07:55.473Z,28.62
2019-01-20T19:10:23.108Z,28.77
2019-01-20T19:12:51.304Z,27.82
2019-01-20T19:15:23.613Z,28.27
2019-01-20T19:17:51.807Z,27.22
2019-01-20T19:20:22.623Z,28.02
2019-01-20T19:22:52.500Z,29.87
2019-01-20T19:25:20.705Z,30.08
2019-01-20T19:27:48.916Z,29.40
2019-01-20T19:30:19.459Z,28.83
2019-01-20T19:35:15.445Z,31.07
2019-01-20T19:37:43.661Z,30.85
2019-01-20T19:40:14.203Z,30.92
2019-01-20T19:45:15.139Z,30.08
2019-01-20T19:47:43.378Z,31.12
2019-01-20T19:50:13.416Z,31.20
2019-01-20T19:52:41.625Z,30.23
2019-01-20T19:55:15.408Z,31.55
2019-01-20T19:57:43.620Z,31.05
2019-01-20T20:00:14.911Z,31.30
2019-01-20T20:02:43.151Z,34.85
2019-01-20T20:05:13.935Z,34.08
2019-01-20T20:07:42.127Z,33.13
2019-01-20T20:10:15.361Z,34.30
2019-01-20T20:12:43.598Z,33.45
2019-01-20T20:15:19.963Z,32.28
2019-01-20T20:17:48.246Z,30.20
2019-01-20T20:20:17.791Z,31.97
2019-01-20T20:22:45.991Z,31.33
2019-01-20T20:25:16.239Z,31.25
2019-01-20T20:27:44.545Z,32.60
2019-01-20T20:30:21.501Z,32.40
2019-01-20T20:32:49.755Z,32.83
2019-01-20T20:35:17.998Z,33.15
2019-01-20T20:37:46.280Z,32.75
2019-01-20T20:40:17.272Z,33.98
2019-01-20T20:42:45.476Z,32.65
2019-01-20T20:45:16.727Z,33.67
2019-01-20T20:47:44.946Z,34.98
2019-01-20T20:50:18.015Z,34.33
2019-01-20T20:52:46.685Z,34.18
2019-01-20T20:55:14.950Z,31.17
2019-01-20T20:57:43.173Z,35.35
2019-01-20T21:00:14.757Z,33.88
2019-01-20T21:02:43.039Z,36.00
2019-01-20T21:05:11.255Z,34.05
2019-01-20T21:07:39.925Z,33.80
2019-01-20T21:10:13.644Z,36.83
2019-01-20T21:12:42.511Z,36.98
2019-01-20T21:15:13.579Z,36.20
2019-01-20T21:17:48.153Z,36.98
2019-01-20T21:20:14.859Z,27.07
2019-01-20T21:22:43.026Z,35.83
2019-01-20T21:25:11.611Z,35.68
2019-01-20T21:27:39.809Z,36.42
2019-01-20T21:30:11.543Z,36.98
2019-01-20T21:32:39.826Z,33.40
2019-01-20T21:35:08.571Z,35.03
2019-01-20T21:37:36.752Z,33.33
2019-01-20T21:40:07.941Z,33.13
2019-01-20T21:42:36.156Z,36.68
2019-01-20T21:45:06.311Z,33.65
2019-01-20T21:47:34.523Z,37.50
2019-01-20T21:50:02.739Z,36.42
2019-01-20T21:52:30.935Z,35.15
2019-01-20T21:54:59.150Z,33.18
2019-01-20T21:57:27.363Z,32.95
2019-01-20T21:59:55.563Z,34.18
2019-01-20T22:02:23.784Z,33.50
2019-01-20T22:04:51.992Z,34.18
2019-01-20T22:07:20.203Z,33.55
2019-01-20T22:09:48.423Z,33.90
2019-01-20T22:12:16.635Z,34.03
2019-01-20T22:14:44.858Z,34.88
2019-01-20T22:17:13.064Z,33.75
2019-01-20T22:19:41.272Z,32.55
2019-01-20T22:22:09.497Z,36.30
2019-01-20T22:24:38.273Z,33.25
2019-01-20T22:27:06.499Z,33.38
2019-01-20T22:29:34.784Z,33.67
2019-01-20T22:32:02.995Z,32.00
2019-01-20T22:34:31.205Z,34.35
2019-01-20T22:36:59.425Z,33.65
2019-01-20T22:39:27.640Z,33.65
2019-01-20T22:41:55.912Z,34.15
2019-01-20T22:44:24.127Z,31.82
2019-01-20T22:46:52.340Z,29.70
2019-01-20T22:49:21.118Z,32.17
2019-01-20T22:51:49.322Z,31.20
2019-01-20T22:54:17.531Z,30.10
2019-01-20T22:56:45.731Z,33.18
2019-01-20T22:59:13.952Z,31.02
2019-01-20T23:01:42.155Z,31.15
2019-01-20T23:04:10.378Z,31.75
2019-01-20T23:06:38.631Z,31.33
2019-01-20T23:09:07.035Z,30.82
2019-01-20T23:11:35.244Z,28.70
2019-01-20T23:14:03.478Z,30.20
2019-01-20T23:16:31.731Z,32.50
2019-01-20T23:18:59.953Z,34.13
2019-01-20T23:21:28.164Z,32.25
2019-01-20T23:23:56.375Z,32.57
2019-01-20T23:26:24.571Z,30.62
2019-01-20T23:28:52.825Z,33.33
2019-01-20T23:31:21.065Z,31.02
2019-01-20T23:33:49.277Z,32.38
2019-01-20T23:36:17.484Z,32.25
2019-01-20T23:38:45.702Z,32.35
2019-01-20T23:41:13.909Z,31.68
2019-01-20T23:43:42.116Z,29.35
2019-01-20T23:46:10.341Z,30.08
2019-01-20T23:48:38.564Z,30.25
2019-01-20T23:51:06.774Z,29.98
2019-01-20T23:53:35.033Z,30.55
2019-01-20T23:56:03.374Z,30.23
2019-01-20T23:58:31.570Z,29.67
